createdAt,value
2022-08-17T00:00:51.694Z,23.70
2022-08-17T00:02:26.049Z,23.70
2022-08-17T00:03:59.459Z,23.60
2022-08-17T00:05:35.943Z,23.60
2022-08-17T00:07:08.688Z,23.60
2022-08-17T00:08:44.004Z,23.70
2022-08-17T00:10:16.879Z,23.60
2022-08-17T00:12:41.113Z,23.60
2022-08-17T00:13:49.390Z,23.60
2022-08-17T00:15:22.496Z,23.60
2022-08-17T00:16:57.190Z,23.50
2022-08-17T00:18:53.745Z,23.50
2022-08-17T00:20:33.522Z,23.40
2022-08-17T00:22:32.815Z,23.40
2022-08-17T00:24:00.595Z,23.40
2022-08-17T00:25:32.443Z,23.40
2022-08-17T00:27:05.507Z,23.40
2022-08-17T00:28:39.172Z,23.40
2022-08-17T00:30:14.374Z,23.40
2022-08-17T00:31:47.118Z,23.40
2022-08-17T00:33:22.004Z,23.30
2022-08-17T00:34:53.824Z,23.30
2022-08-17T00:36:26.810Z,23.30
2022-08-17T00:37:59.592Z,23.30
2022-08-17T00:39:32.455Z,23.30
2022-08-17T00:41:08.771Z,23.30
2022-08-17T00:42:42.376Z,23.20
2022-08-17T00:44:16.355Z,23.10
2022-08-17T00:45:50.800Z,23.20
2022-08-17T00:47:22.588Z,23.20
2022-08-17T00:48:55.697Z,23.20
2022-08-17T00:50:28.638Z,23.20
2022-08-17T00:52:10.784Z,23.10
2022-08-17T00:53:50.960Z,23.20
2022-08-17T00:55:24.764Z,23.20
2022-08-17T00:56:59.487Z,23.20
2022-08-17T00:58:36.552Z,23.10
2022-08-17T01:00:14.900Z,23.10
2022-08-17T01:01:50.826Z,23.10
2022-08-17T01:03:26.750Z,23.10
2022-08-17T01:04:59.535Z,23.00
2022-08-17T01:06:31.717Z,23.00
2022-08-17T01:08:05.253Z,23.00
2022-08-17T01:09:38.586Z,23.00
2022-08-17T01:11:11.319Z,23.00
2022-08-17T01:12:44.243Z,22.90
2022-08-17T01:14:19.274Z,22.90
2022-08-17T01:15:56.018Z,22.90
2022-08-17T01:17:30.143Z,22.90
2022-08-17T01:19:06.161Z,22.90
2022-08-17T01:20:48.159Z,23.00
2022-08-17T01:22:23.188Z,23.00
2022-08-17T01:23:56.777Z,22.90
2022-08-17T01:25:30.636Z,22.90
2022-08-17T01:27:04.215Z,22.90
2022-08-17T01:28:55.498Z,22.90
2022-08-17T01:30:56.628Z,22.90
2022-08-17T01:32:21.675Z,22.90
2022-08-17T01:33:54.507Z,22.80
2022-08-17T01:35:27.400Z,22.90
2022-08-17T01:37:00.260Z,22.90
2022-08-17T01:38:35.251Z,22.90
2022-08-17T01:40:15.734Z,22.80
2022-08-17T01:41:51.679Z,22.80
2022-08-17T01:43:29.795Z,22.80
2022-08-17T01:45:06.568Z,22.70
2022-08-17T01:46:39.362Z,22.70
2022-08-17T01:48:12.366Z,22.70
2022-08-17T01:49:45.064Z,22.70
2022-08-17T01:51:18.351Z,22.70
2022-08-17T01:52:55.015Z,22.70
2022-08-17T01:54:28.479Z,22.70
2022-08-17T01:56:04.027Z,22.70
2022-08-17T01:57:37.280Z,22.70
2022-08-17T01:59:10.152Z,22.70
2022-08-17T02:00:59.380Z,22.70
2022-08-17T02:02:33.145Z,22.60
2022-08-17T02:04:06.622Z,22.70
2022-08-17T02:05:39.678Z,22.60
2022-08-17T02:07:11.943Z,22.60
2022-08-17T02:09:01.477Z,22.60
2022-08-17T02:10:36.399Z,22.60
2022-08-17T02:12:37.733Z,22.60
2022-08-17T02:14:12.146Z,22.50
2022-08-17T02:15:44.040Z,22.40
2022-08-17T02:17:16.804Z,22.40
2022-08-17T02:18:49.587Z,22.30
2022-08-17T02:20:42.189Z,22.20
2022-08-17T02:22:18.115Z,22.10
2022-08-17T02:23:51.400Z,22.10
2022-08-17T02:25:23.192Z,22.10
2022-08-17T02:26:57.278Z,22.10
2022-08-17T02:28:30.734Z,22.00
2022-08-17T02:30:03.535Z,22.00
2022-08-17T02:31:58.427Z,22.10
2022-08-17T02:33:43.162Z,22.00
2022-08-17T02:35:16.394Z,22.10
2022-08-17T02:36:52.956Z,22.00
2022-08-17T02:38:25.757Z,22.00
2022-08-17T02:39:59.520Z,22.00
2022-08-17T02:41:32.460Z,22.00
2022-08-17T02:43:06.840Z,21.90
2022-08-17T02:44:39.918Z,21.90
2022-08-17T02:46:13.551Z,21.90
2022-08-17T02:47:47.203Z,22.00
2022-08-17T02:49:19.946Z,22.00
2022-08-17T02:50:52.716Z,22.00
2022-08-17T02:52:43.409Z,22.00
2022-08-17T02:54:40.210Z,22.00
2022-08-17T02:56:09.670Z,22.00
2022-08-17T02:57:41.525Z,21.90
2022-08-17T02:59:15.592Z,21.90
2022-08-17T03:00:48.426Z,21.90
2022-08-17T03:02:21.201Z,21.90
2022-08-17T03:03:53.980Z,21.80
2022-08-17T03:05:30.118Z,21.80
2022-08-17T03:07:03.345Z,21.80
2022-08-17T03:08:37.340Z,21.80
2022-08-17T03:10:11.367Z,21.80
2022-08-17T03:11:44.199Z,21.80
2022-08-17T03:13:16.167Z,21.80
2022-08-17T03:14:50.239Z,21.80
2022-08-17T03:16:22.997Z,21.80
2022-08-17T03:17:56.635Z,21.90
2022-08-17T03:19:29.330Z,21.90
2022-08-17T03:21:04.493Z,21.90
2022-08-17T03:22:38.650Z,21.90
2022-08-17T03:24:11.436Z,21.80
2022-08-17T03:25:45.863Z,21.80
2022-08-17T03:27:18.635Z,21.70
2022-08-17T03:28:51.431Z,21.70
2022-08-17T03:30:26.132Z,21.70
2022-08-17T03:31:58.923Z,21.70
2022-08-17T03:33:32.012Z,21.70
2022-08-17T03:35:04.325Z,21.60
2022-08-17T03:36:37.097Z,21.60
2022-08-17T03:38:11.119Z,21.60
2022-08-17T03:39:43.972Z,21.60
2022-08-17T03:41:16.782Z,21.50
2022-08-17T03:42:52.480Z,21.50
2022-08-17T03:44:25.213Z,21.50
2022-08-17T03:46:27.753Z,21.40
2022-08-17T03:48:25.383Z,21.40
2022-08-17T03:50:15.923Z,21.40
2022-08-17T03:52:06.484Z,21.40
2022-08-17T03:54:06.403Z,21.40
2022-08-17T03:55:58.483Z,21.50
2022-08-17T03:57:32.456Z,21.50
2022-08-17T03:59:05.272Z,21.50
2022-08-17T04:00:39.762Z,21.40
2022-08-17T04:02:18.099Z,21.40
2022-08-17T04:03:49.886Z,21.40
2022-08-17T04:05:22.662Z,21.40
2022-08-17T04:06:55.491Z,21.30
2022-08-17T04:08:28.331Z,21.30
2022-08-17T04:10:01.404Z,21.30
2022-08-17T04:11:34.893Z,21.30
2022-08-17T04:13:07.664Z,21.30
2022-08-17T04:14:51.752Z,21.30
2022-08-17T04:16:25.818Z,21.30
2022-08-17T04:18:00.550Z,21.30
2022-08-17T04:19:33.275Z,21.20
2022-08-17T04:21:06.296Z,21.30
2022-08-17T04:22:39.467Z,21.30
2022-08-17T04:24:12.188Z,21.30
2022-08-17T04:25:48.089Z,21.30
2022-08-17T04:27:19.868Z,21.20
2022-08-17T04:28:52.650Z,21.20
2022-08-17T04:30:25.920Z,21.20
2022-08-17T04:31:58.959Z,21.20
2022-08-17T04:33:33.326Z,21.20
2022-08-17T04:35:06.885Z,21.30
2022-08-17T04:36:39.668Z,21.30
2022-08-17T04:38:14.155Z,21.30
2022-08-17T04:40:06.909Z,21.30
2022-08-17T04:41:57.051Z,21.30
2022-08-17T04:43:30.862Z,21.30
2022-08-17T04:45:04.119Z,21.30
2022-08-17T04:46:37.473Z,21.30
2022-08-17T04:48:09.345Z,21.30
2022-08-17T04:49:43.442Z,21.30
2022-08-17T04:51:19.769Z,21.30
2022-08-17T04:52:52.515Z,21.40
2022-08-17T04:54:25.485Z,21.30
2022-08-17T04:55:58.892Z,21.30
2022-08-17T04:57:31.640Z,21.40
2022-08-17T04:59:15.343Z,21.40
2022-08-17T05:00:48.332Z,21.40
2022-08-17T05:02:21.110Z,21.40
2022-08-17T05:03:56.002Z,21.40
2022-08-17T05:05:32.796Z,21.40
2022-08-17T05:07:05.561Z,21.50
2022-08-17T05:08:40.067Z,21.50
2022-08-17T05:10:13.014Z,21.50
2022-08-17T05:11:46.138Z,21.40
2022-08-17T05:13:21.228Z,21.40
2022-08-17T05:14:53.997Z,21.40
2022-08-17T05:16:29.263Z,21.40
2022-08-17T05:18:02.039Z,21.40
2022-08-17T05:19:34.790Z,21.30
2022-08-17T05:21:11.459Z,21.30
2022-08-17T05:22:51.104Z,21.30
2022-08-17T05:24:39.028Z,21.30
2022-08-17T05:26:26.283Z,21.30
2022-08-17T05:28:00.115Z,21.30
2022-08-17T05:29:35.989Z,21.30
2022-08-17T05:31:08.878Z,21.30
2022-08-17T05:32:50.877Z,21.30
2022-08-17T05:34:23.711Z,21.30
2022-08-17T05:35:58.832Z,21.30
2022-08-17T05:37:33.255Z,21.30
2022-08-17T05:39:06.519Z,21.30
2022-08-17T05:40:39.701Z,21.30
2022-08-17T05:42:12.456Z,21.30
2022-08-17T05:43:45.198Z,21.40
2022-08-17T05:45:54.584Z,21.40
2022-08-17T05:47:13.141Z,21.40
2022-08-17T05:48:48.690Z,21.40
2022-08-17T05:50:27.143Z,21.40
2022-08-17T05:52:14.576Z,21.50
2022-08-17T05:54:07.959Z,21.40
2022-08-17T05:55:49.134Z,21.40
2022-08-17T05:57:53.101Z,21.40
2022-08-17T05:59:34.019Z,21.50
2022-08-17T06:01:14.302Z,21.50
2022-08-17T06:03:05.921Z,21.50
2022-08-17T06:04:56.781Z,21.50
2022-08-17T06:06:39.760Z,21.50
2022-08-17T06:08:20.523Z,21.50
2022-08-17T06:10:03.508Z,21.60
2022-08-17T06:11:45.803Z,21.60
2022-08-17T06:13:28.227Z,21.70
2022-08-17T06:15:16.466Z,21.70
2022-08-17T06:16:56.151Z,21.80
2022-08-17T06:18:37.272Z,21.80
2022-08-17T06:20:12.088Z,21.90
2022-08-17T06:21:49.747Z,21.90
2022-08-17T06:23:27.611Z,21.90
2022-08-17T06:25:05.533Z,22.00
2022-08-17T06:26:45.371Z,22.00
2022-08-17T06:28:26.659Z,22.00
2022-08-17T06:30:05.330Z,22.00
2022-08-17T06:31:40.707Z,22.00
2022-08-17T06:33:20.575Z,22.00
2022-08-17T06:34:54.116Z,22.00
2022-08-17T06:36:40.064Z,22.00
2022-08-17T06:38:37.531Z,22.10
2022-08-17T06:40:35.343Z,22.10
2022-08-17T06:43:04.089Z,22.10
2022-08-17T06:44:43.463Z,22.10
2022-08-17T06:46:17.456Z,22.00
2022-08-17T06:47:56.060Z,22.10
2022-08-17T06:49:34.403Z,22.00
2022-08-17T06:51:15.460Z,22.00
2022-08-17T06:52:55.096Z,22.00
2022-08-17T06:54:36.259Z,22.00
2022-08-17T06:56:13.482Z,22.00
2022-08-17T06:57:50.980Z,22.00
2022-08-17T06:59:34.781Z,22.10
2022-08-17T07:01:24.976Z,22.10
2022-08-17T07:03:02.169Z,22.10
2022-08-17T07:04:36.828Z,22.10
2022-08-17T07:06:15.302Z,22.20
2022-08-17T07:08:03.328Z,22.10
2022-08-17T07:09:38.224Z,22.10
2022-08-17T07:11:16.083Z,22.10
2022-08-17T07:12:51.492Z,22.10
2022-08-17T07:14:36.592Z,22.10
2022-08-17T07:16:17.451Z,22.10
2022-08-17T07:17:50.916Z,22.10
2022-08-17T07:19:28.294Z,22.10
2022-08-17T07:21:20.721Z,22.00
2022-08-17T07:23:01.718Z,22.00
2022-08-17T07:24:39.215Z,21.90
2022-08-17T07:26:13.349Z,21.90
2022-08-17T07:27:51.164Z,21.90
2022-08-17T07:29:24.130Z,21.90
2022-08-17T07:30:56.999Z,21.90
2022-08-17T07:32:32.774Z,22.00
2022-08-17T07:34:14.365Z,22.00
2022-08-17T07:35:49.876Z,22.00
2022-08-17T07:37:22.667Z,22.10
2022-08-17T07:38:57.782Z,22.10
2022-08-17T07:40:34.181Z,22.10
2022-08-17T07:42:11.590Z,22.10
2022-08-17T07:43:49.844Z,22.10
2022-08-17T07:45:36.694Z,22.10
2022-08-17T07:47:35.316Z,22.10
2022-08-17T07:49:24.373Z,22.10
2022-08-17T07:50:57.223Z,22.00
2022-08-17T07:52:51.365Z,22.10
2022-08-17T07:54:30.243Z,22.10
2022-08-17T07:56:03.076Z,22.10
2022-08-17T07:57:37.303Z,22.10
2022-08-17T07:59:13.001Z,22.10
2022-08-17T08:00:47.652Z,22.10
2022-08-17T08:02:31.957Z,22.10
2022-08-17T08:05:00.085Z,22.00
2022-08-17T08:06:27.282Z,21.90
2022-08-17T08:08:02.272Z,21.90
2022-08-17T08:09:40.358Z,21.90
2022-08-17T08:11:28.777Z,21.90
2022-08-17T08:13:13.019Z,21.90
2022-08-17T08:14:56.137Z,21.80
2022-08-17T08:16:30.087Z,21.90
2022-08-17T08:18:05.668Z,21.90
2022-08-17T08:19:38.587Z,21.90
2022-08-17T08:21:18.250Z,21.90
2022-08-17T08:22:58.883Z,21.90
2022-08-17T08:24:53.085Z,21.90
2022-08-17T08:26:34.843Z,22.00
2022-08-17T08:28:20.035Z,22.00
2022-08-17T08:29:56.431Z,22.10
2022-08-17T08:31:43.035Z,22.10
2022-08-17T08:33:39.937Z,22.10
2022-08-17T08:35:22.501Z,22.10
2022-08-17T08:37:16.381Z,22.20
2022-08-17T08:39:01.500Z,22.20
2022-08-17T08:40:49.591Z,22.20
2022-08-17T08:42:28.019Z,22.20
2022-08-17T08:44:11.000Z,22.20
2022-08-17T08:45:51.360Z,22.20
2022-08-17T08:47:38.761Z,22.20
2022-08-17T08:50:03.271Z,22.30
2022-08-17T08:51:46.939Z,22.20
2022-08-17T08:53:34.151Z,22.20
2022-08-17T08:55:13.857Z,22.10
2022-08-17T08:57:21.413Z,22.10
2022-08-17T08:58:52.409Z,22.20
2022-08-17T09:00:28.092Z,22.20
2022-08-17T09:02:19.357Z,22.30
2022-08-17T09:04:24.285Z,22.30
2022-08-17T09:06:32.300Z,22.40
2022-08-17T09:08:13.128Z,22.50
2022-08-17T09:09:59.355Z,22.50
2022-08-17T09:12:02.109Z,22.60
2022-08-17T09:13:45.067Z,22.60
2022-08-17T09:15:21.303Z,22.70
2022-08-17T09:17:02.550Z,22.70
2022-08-17T09:19:00.582Z,22.70
2022-08-17T09:20:40.488Z,22.70
2022-08-17T09:22:25.496Z,22.80
2022-08-17T09:24:06.672Z,22.80
2022-08-17T09:25:50.349Z,22.90
2022-08-17T09:27:28.096Z,23.00
2022-08-17T09:29:04.343Z,23.10
2022-08-17T09:30:45.356Z,23.20
2022-08-17T09:32:25.652Z,23.30
2022-08-17T09:34:00.792Z,23.50
2022-08-17T09:35:37.651Z,23.50
2022-08-17T09:37:20.167Z,23.70
2022-08-17T09:39:00.803Z,23.80
2022-08-17T09:40:38.627Z,23.90
2022-08-17T09:42:16.836Z,24.00
2022-08-17T09:43:55.495Z,24.10
2022-08-17T09:45:33.232Z,24.10
2022-08-17T09:47:11.854Z,24.20
2022-08-17T09:48:51.551Z,24.20
2022-08-17T09:51:04.005Z,24.40
2022-08-17T09:52:25.144Z,24.50
2022-08-17T09:54:14.760Z,24.60
2022-08-17T09:56:07.492Z,24.60
2022-08-17T09:57:53.268Z,24.70
2022-08-17T09:59:38.433Z,24.80
2022-08-17T10:01:31.369Z,24.80
2022-08-17T10:03:28.148Z,24.90
2022-08-17T10:05:06.583Z,24.90
2022-08-17T10:06:50.839Z,24.90
2022-08-17T10:08:33.786Z,25.00
2022-08-17T10:10:16.561Z,25.00
2022-08-17T10:12:10.995Z,25.00
2022-08-17T10:13:53.146Z,25.10
2022-08-17T10:15:37.524Z,25.10
2022-08-17T10:17:20.325Z,25.10
2022-08-17T10:19:07.347Z,25.10
2022-08-17T10:20:47.675Z,25.20
2022-08-17T10:22:44.123Z,25.10
2022-08-17T10:24:36.903Z,25.10
2022-08-17T10:26:16.251Z,25.10
2022-08-17T10:27:52.836Z,25.00
2022-08-17T10:29:29.623Z,25.00
2022-08-17T10:31:34.843Z,25.00
2022-08-17T10:33:15.558Z,24.90
2022-08-17T10:35:25.711Z,24.90
2022-08-17T10:37:10.714Z,25.00
2022-08-17T10:38:47.734Z,24.90
2022-08-17T10:40:32.339Z,24.90
2022-08-17T10:42:30.109Z,25.00
2022-08-17T10:44:39.801Z,25.00
2022-08-17T10:46:30.098Z,24.90
2022-08-17T10:48:30.004Z,24.90
2022-08-17T10:50:37.889Z,24.90
2022-08-17T10:52:44.024Z,24.90
2022-08-17T10:54:37.434Z,24.90
2022-08-17T10:56:40.312Z,24.90
2022-08-17T10:58:24.369Z,24.90
2022-08-17T11:00:01.355Z,24.90
2022-08-17T11:01:58.823Z,24.90
2022-08-17T11:03:32.841Z,24.90
2022-08-17T11:05:18.593Z,25.00
2022-08-17T11:07:02.410Z,25.10
2022-08-17T11:09:02.224Z,25.20
2022-08-17T11:10:54.817Z,25.30
2022-08-17T11:12:37.502Z,25.40
2022-08-17T11:14:28.031Z,25.50
2022-08-17T11:16:14.103Z,25.60
2022-08-17T11:18:18.370Z,25.70
2022-08-17T11:20:15.387Z,25.80
2022-08-17T11:22:20.579Z,25.90
2022-08-17T11:24:11.611Z,26.00
2022-08-17T11:25:56.159Z,26.00
2022-08-17T11:27:32.655Z,26.10
2022-08-17T11:29:09.382Z,26.30
2022-08-17T11:30:48.819Z,26.30
2022-08-17T11:32:47.627Z,26.30
2022-08-17T11:34:26.357Z,26.40
2022-08-17T11:36:11.785Z,26.40
2022-08-17T11:37:54.776Z,26.50
2022-08-17T11:40:06.084Z,26.50
2022-08-17T11:41:48.866Z,26.50
2022-08-17T11:44:03.937Z,26.50
2022-08-17T11:46:11.675Z,26.50
2022-08-17T11:48:27.103Z,26.50
2022-08-17T11:50:49.173Z,26.50
2022-08-17T11:52:40.427Z,26.50
2022-08-17T11:54:37.755Z,26.50
2022-08-17T11:56:13.205Z,26.50
2022-08-17T11:58:00.106Z,26.50
2022-08-17T11:59:58.772Z,26.50
2022-08-17T12:01:55.666Z,26.50
2022-08-17T12:03:55.972Z,26.50
2022-08-17T12:05:33.941Z,26.60
2022-08-17T12:07:11.067Z,26.50
2022-08-17T12:08:46.499Z,26.50
2022-08-17T12:10:21.555Z,26.60
2022-08-17T12:12:12.717Z,26.60
2022-08-17T12:13:56.140Z,26.60
2022-08-17T12:15:32.512Z,26.60
2022-08-17T12:17:09.067Z,26.60
2022-08-17T12:18:50.740Z,26.60
2022-08-17T12:20:27.980Z,26.70
2022-08-17T12:22:06.168Z,26.60
2022-08-17T12:23:47.230Z,26.50
2022-08-17T12:25:27.218Z,26.60
2022-08-17T12:27:02.296Z,26.60
2022-08-17T12:28:38.960Z,26.50
2022-08-17T12:30:15.279Z,26.50
2022-08-17T12:31:50.732Z,26.50
2022-08-17T12:33:28.444Z,26.50
2022-08-17T12:35:03.190Z,26.50
2022-08-17T12:36:36.640Z,26.50
2022-08-17T12:38:32.163Z,26.60
2022-08-17T12:40:06.497Z,26.70
2022-08-17T12:41:41.293Z,26.70
2022-08-17T12:43:21.877Z,26.70
2022-08-17T12:44:54.612Z,26.80
2022-08-17T12:46:28.969Z,26.80
2022-08-17T12:48:06.449Z,26.80
2022-08-17T12:49:42.216Z,26.90
2022-08-17T12:51:15.049Z,26.90
2022-08-17T12:52:47.832Z,27.00
2022-08-17T12:54:41.109Z,27.00
2022-08-17T12:56:14.597Z,27.10
2022-08-17T12:57:50.404Z,27.10
2022-08-17T12:59:28.660Z,27.10
2022-08-17T13:01:06.029Z,27.20
2022-08-17T13:02:44.325Z,27.20
2022-08-17T13:04:17.578Z,27.30
2022-08-17T13:05:57.849Z,27.40
2022-08-17T13:07:35.225Z,27.40
2022-08-17T13:09:13.191Z,27.40
2022-08-17T13:10:56.389Z,27.50
2022-08-17T13:12:33.866Z,27.60
2022-08-17T13:14:11.013Z,27.50
2022-08-17T13:15:53.504Z,27.50
2022-08-17T13:17:31.571Z,27.50
2022-08-17T13:19:10.124Z,27.50
2022-08-17T13:20:54.289Z,27.50
2022-08-17T13:22:29.211Z,27.50
2022-08-17T13:24:07.391Z,27.60
2022-08-17T13:25:40.307Z,27.60
2022-08-17T13:27:15.160Z,27.70
2022-08-17T13:28:49.560Z,27.70
2022-08-17T13:30:27.933Z,27.80
2022-08-17T13:32:15.884Z,27.80
2022-08-17T13:33:52.895Z,27.90
2022-08-17T13:35:50.310Z,27.90
2022-08-17T13:37:29.795Z,27.90
2022-08-17T13:39:13.900Z,28.00
2022-08-17T13:40:52.094Z,27.90
2022-08-17T13:42:51.741Z,27.90
2022-08-17T13:44:36.434Z,28.00
2022-08-17T13:46:11.237Z,28.00
2022-08-17T13:47:44.171Z,28.00
2022-08-17T13:49:17.804Z,28.00
2022-08-17T13:51:16.123Z,28.00
2022-08-17T13:52:52.005Z,28.00
2022-08-17T13:54:28.875Z,28.00
2022-08-17T13:56:07.254Z,28.00
2022-08-17T13:58:06.753Z,28.00
2022-08-17T13:59:55.110Z,28.00
2022-08-17T14:01:30.245Z,28.00
2022-08-17T14:03:05.563Z,28.00
2022-08-17T14:04:41.307Z,28.00
2022-08-17T14:06:23.703Z,28.00
2022-08-17T14:08:11.763Z,28.00
2022-08-17T14:09:48.560Z,28.00
2022-08-17T14:11:22.773Z,28.00
2022-08-17T14:12:55.819Z,28.00
2022-08-17T14:14:29.499Z,28.10
2022-08-17T14:16:02.239Z,28.10
2022-08-17T14:17:38.874Z,28.20
2022-08-17T14:19:12.964Z,28.20
2022-08-17T14:20:45.746Z,28.20
2022-08-17T14:22:24.421Z,28.20
2022-08-17T14:23:57.631Z,28.20
2022-08-17T14:25:30.794Z,28.20
2022-08-17T14:27:06.199Z,28.30
2022-08-17T14:28:39.612Z,28.30
2022-08-17T14:30:30.023Z,28.30
2022-08-17T14:32:08.419Z,28.40
2022-08-17T14:33:41.175Z,28.40
2022-08-17T14:35:15.765Z,28.40
2022-08-17T14:36:49.209Z,28.40
2022-08-17T14:38:23.353Z,28.40
2022-08-17T14:39:56.918Z,28.40
2022-08-17T14:41:30.184Z,28.40
2022-08-17T14:43:02.925Z,28.40
2022-08-17T14:44:36.130Z,28.40
2022-08-17T14:46:08.884Z,28.40
2022-08-17T14:47:42.507Z,28.40
2022-08-17T14:49:16.036Z,28.30
2022-08-17T14:50:48.826Z,28.40
2022-08-17T14:52:22.358Z,28.40
2022-08-17T14:53:57.092Z,28.40
2022-08-17T14:55:31.033Z,28.40
2022-08-17T14:57:23.270Z,28.50
2022-08-17T14:58:58.387Z,28.50
2022-08-17T15:00:31.302Z,28.50
2022-08-17T15:02:04.660Z,28.50
2022-08-17T15:03:37.632Z,28.50
2022-08-17T15:05:10.668Z,28.50
2022-08-17T15:06:43.902Z,28.50
2022-08-17T15:08:17.786Z,28.50
2022-08-17T15:09:51.961Z,28.50
2022-08-17T15:11:24.742Z,28.60
2022-08-17T15:12:57.883Z,28.60
2022-08-17T15:14:31.034Z,28.60
2022-08-17T15:16:04.208Z,28.60
2022-08-17T15:17:44.447Z,28.50
2022-08-17T15:19:18.495Z,28.60
2022-08-17T15:20:51.253Z,28.60
2022-08-17T15:22:26.981Z,28.60
2022-08-17T15:24:01.983Z,28.60
2022-08-17T15:25:36.483Z,28.60
2022-08-17T15:27:09.539Z,28.60
2022-08-17T15:28:42.299Z,28.60
2022-08-17T15:30:15.411Z,28.60
2022-08-17T15:31:48.176Z,28.60
2022-08-17T15:33:28.957Z,28.60
2022-08-17T15:35:03.995Z,28.60
2022-08-17T15:36:36.968Z,28.60
2022-08-17T15:38:12.334Z,28.60
2022-08-17T15:39:45.962Z,28.60
2022-08-17T15:41:20.235Z,28.60
2022-08-17T15:42:53.154Z,28.60
2022-08-17T15:44:32.664Z,28.60
2022-08-17T15:46:12.161Z,28.60
2022-08-17T15:47:45.013Z,28.60
2022-08-17T15:49:17.871Z,28.60
2022-08-17T15:50:50.612Z,28.60
2022-08-17T15:52:25.936Z,28.60
2022-08-17T15:54:04.532Z,28.60
2022-08-17T15:55:51.855Z,28.60
2022-08-17T15:57:27.362Z,28.60
2022-08-17T15:59:00.456Z,28.50
2022-08-17T16:00:35.462Z,28.50
2022-08-17T16:03:14.688Z,28.50
2022-08-17T16:04:29.937Z,28.50
2022-08-17T16:06:03.981Z,28.50
2022-08-17T16:07:37.811Z,28.50
2022-08-17T16:09:10.558Z,28.50
2022-08-17T16:10:44.226Z,28.60
2022-08-17T16:12:20.330Z,28.50
2022-08-17T16:13:54.927Z,28.50
2022-08-17T16:15:30.983Z,28.50
2022-08-17T16:17:04.515Z,28.60
2022-08-17T16:18:38.803Z,28.60
2022-08-17T16:20:19.537Z,28.60
2022-08-17T16:21:53.463Z,28.60
2022-08-17T16:23:26.219Z,28.60
2022-08-17T16:24:59.020Z,28.70
2022-08-17T16:26:33.370Z,28.70
2022-08-17T16:28:06.854Z,28.70
2022-08-17T16:29:41.384Z,28.70
2022-08-17T16:31:14.649Z,28.70
2022-08-17T16:32:51.403Z,28.70
2022-08-17T16:34:24.679Z,28.70
2022-08-17T16:35:57.568Z,28.70
2022-08-17T16:37:30.838Z,28.70
2022-08-17T16:39:07.021Z,28.80
2022-08-17T16:40:40.391Z,28.80
2022-08-17T16:42:24.731Z,28.70
2022-08-17T16:43:57.501Z,28.80
2022-08-17T16:45:36.256Z,28.80
2022-08-17T16:47:10.444Z,28.80
2022-08-17T16:48:44.340Z,28.80
2022-08-17T16:50:20.443Z,28.80
2022-08-17T16:51:52.273Z,28.80
2022-08-17T16:53:26.629Z,28.90
2022-08-17T16:55:01.286Z,28.90
2022-08-17T16:56:35.117Z,28.90
2022-08-17T16:58:08.747Z,28.90
2022-08-17T16:59:45.032Z,28.90
2022-08-17T17:01:22.932Z,28.90
2022-08-17T17:02:56.452Z,28.90
2022-08-17T17:04:29.338Z,28.90
2022-08-17T17:06:17.060Z,28.80
2022-08-17T17:08:03.164Z,28.90
2022-08-17T17:09:38.953Z,28.80
2022-08-17T17:11:23.813Z,28.80
2022-08-17T17:13:02.940Z,28.80
2022-08-17T17:14:39.531Z,28.80
2022-08-17T17:16:19.179Z,28.80
2022-08-17T17:17:53.764Z,28.70
2022-08-17T17:19:35.115Z,28.70
2022-08-17T17:21:13.862Z,28.70
2022-08-17T17:22:49.607Z,28.70
2022-08-17T17:24:28.958Z,28.70
2022-08-17T17:26:23.631Z,28.60
2022-08-17T17:28:05.064Z,28.60
2022-08-17T17:29:56.778Z,28.60
2022-08-17T17:31:38.185Z,28.60
2022-08-17T17:33:17.409Z,28.60
2022-08-17T17:35:04.456Z,28.50
2022-08-17T17:36:40.781Z,28.50
2022-08-17T17:38:19.861Z,28.40
2022-08-17T17:39:55.330Z,28.40
2022-08-17T17:41:33.782Z,28.40
2022-08-17T17:43:34.740Z,28.40
2022-08-17T17:45:08.314Z,28.40
2022-08-17T17:46:45.089Z,28.30
2022-08-17T17:48:19.214Z,28.30
2022-08-17T17:49:52.011Z,28.20
2022-08-17T17:52:09.042Z,28.20
2022-08-17T17:53:52.328Z,28.20
2022-08-17T17:55:35.172Z,28.20
2022-08-17T17:57:18.135Z,28.10
2022-08-17T17:58:59.633Z,28.00
2022-08-17T18:00:38.120Z,28.10
2022-08-17T18:02:38.725Z,28.00
2022-08-17T18:04:36.528Z,28.00
2022-08-17T18:06:20.083Z,28.00
2022-08-17T18:08:03.699Z,27.90
2022-08-17T18:10:01.254Z,27.90
2022-08-17T18:11:51.479Z,27.90
2022-08-17T18:13:34.966Z,27.90
2022-08-17T18:15:21.553Z,27.80
2022-08-17T18:16:58.948Z,27.80
2022-08-17T18:18:40.136Z,27.80
2022-08-17T18:20:18.487Z,27.70
2022-08-17T18:21:54.498Z,27.70
2022-08-17T18:23:28.651Z,27.60
2022-08-17T18:25:01.593Z,27.60
2022-08-17T18:26:44.707Z,27.60
2022-08-17T18:28:25.943Z,27.60
2022-08-17T18:30:00.168Z,27.60
2022-08-17T18:31:33.228Z,27.60
2022-08-17T18:33:22.109Z,27.60
2022-08-17T18:34:58.403Z,27.50
2022-08-17T18:36:36.211Z,27.50
2022-08-17T18:38:22.158Z,27.50
2022-08-17T18:39:53.996Z,27.50
2022-08-17T18:41:30.312Z,27.50
2022-08-17T18:43:08.939Z,27.40
2022-08-17T18:44:44.919Z,27.40
2022-08-17T18:46:28.980Z,27.30
2022-08-17T18:48:03.143Z,27.30
2022-08-17T18:49:37.095Z,27.30
2022-08-17T18:51:39.857Z,27.20
2022-08-17T18:53:26.474Z,27.20
2022-08-17T18:55:08.407Z,27.10
2022-08-17T18:56:44.107Z,27.10
2022-08-17T18:58:20.615Z,27.00
2022-08-17T18:59:53.456Z,27.00
2022-08-17T19:01:46.896Z,27.00
2022-08-17T19:03:24.647Z,26.90
2022-08-17T19:05:00.616Z,26.90
2022-08-17T19:06:34.954Z,26.90
2022-08-17T19:08:24.536Z,26.80
2022-08-17T19:10:14.943Z,26.80
2022-08-17T19:11:47.840Z,26.80
2022-08-17T19:13:25.642Z,26.80
2022-08-17T19:15:00.423Z,26.70
2022-08-17T19:16:38.584Z,26.70
2022-08-17T19:18:17.239Z,26.60
2022-08-17T19:19:57.495Z,26.60
2022-08-17T19:21:35.960Z,26.60
2022-08-17T19:23:16.849Z,26.60
2022-08-17T19:24:56.118Z,26.60
2022-08-17T19:26:50.793Z,26.60
2022-08-17T19:28:33.460Z,26.60
2022-08-17T19:30:12.718Z,26.50
2022-08-17T19:31:46.771Z,26.50
2022-08-17T19:33:20.326Z,26.60
2022-08-17T19:34:53.156Z,26.60
2022-08-17T19:36:36.415Z,26.50
2022-08-17T19:38:16.445Z,26.50
2022-08-17T19:39:58.743Z,26.50
2022-08-17T19:41:43.009Z,26.40
2022-08-17T19:43:30.050Z,26.40
2022-08-17T19:45:08.467Z,26.40
2022-08-17T19:46:50.662Z,26.50
2022-08-17T19:48:42.688Z,26.40
2022-08-17T19:50:23.580Z,26.40
2022-08-17T19:52:04.842Z,26.40
2022-08-17T19:54:04.308Z,26.40
2022-08-17T19:55:50.933Z,26.40
2022-08-17T19:57:40.089Z,26.40
2022-08-17T19:59:20.009Z,26.30
2022-08-17T20:00:55.070Z,26.30
2022-08-17T20:02:37.343Z,26.30
2022-08-17T20:04:16.419Z,26.30
2022-08-17T20:07:53.411Z,26.30
2022-08-17T20:09:33.618Z,26.30
2022-08-17T20:11:15.963Z,26.30
2022-08-17T20:12:51.868Z,26.30
2022-08-17T20:14:31.759Z,26.30
2022-08-17T20:16:05.884Z,26.30
2022-08-17T20:17:46.605Z,26.30
2022-08-17T20:19:33.316Z,26.20
2022-08-17T20:21:20.359Z,26.20
2022-08-17T20:22:59.548Z,26.20
2022-08-17T20:24:40.038Z,26.20
2022-08-17T20:26:20.345Z,26.10
2022-08-17T20:28:05.597Z,26.10
2022-08-17T20:30:02.318Z,26.10
2022-08-17T20:31:45.440Z,26.10
2022-08-17T20:33:27.552Z,26.10
2022-08-17T20:35:22.489Z,26.10
2022-08-17T20:37:00.466Z,26.00
2022-08-17T20:38:42.066Z,26.00
2022-08-17T20:40:27.499Z,26.00
2022-08-17T20:42:08.741Z,26.00
2022-08-17T20:43:51.297Z,26.00
2022-08-17T20:45:48.536Z,26.00
2022-08-17T20:47:27.344Z,25.90
2022-08-17T20:49:16.320Z,25.90
2022-08-17T20:50:56.917Z,25.80
2022-08-17T20:52:46.542Z,25.80
2022-08-17T20:54:42.428Z,25.70
2022-08-17T20:56:48.779Z,25.70
2022-08-17T20:58:46.436Z,25.70
2022-08-17T21:00:45.943Z,25.70
2022-08-17T21:02:21.408Z,25.70
2022-08-17T21:03:56.033Z,25.70
2022-08-17T21:05:34.464Z,25.70
2022-08-17T21:07:29.875Z,25.70
2022-08-17T21:09:29.556Z,25.60
2022-08-17T21:11:57.033Z,25.60
2022-08-17T21:13:56.701Z,25.60
2022-08-17T21:15:36.779Z,25.50
2022-08-17T21:17:47.834Z,25.50
2022-08-17T21:19:37.558Z,25.50
2022-08-17T21:21:23.979Z,25.50
2022-08-17T21:23:16.180Z,25.50
2022-08-17T21:24:59.055Z,25.50
2022-08-17T21:26:50.187Z,25.50
2022-08-17T21:28:35.241Z,25.50
2022-08-17T21:30:44.455Z,25.50
2022-08-17T21:32:24.630Z,25.40
2022-08-17T21:34:27.987Z,25.40
2022-08-17T21:36:24.543Z,25.30